Time;durP1;ratioP1;P1;durP2;ratioP2;P2;SDS_P1;SDS_P2;PMS_P1;PMS_P2;Temp;Humidity;BMP_temperature;BMP_pressure;BME280_temperature;BME280_humidity;BME280_pressure;Samples;Min_cycle;Max_cycle;Signal;HPM_P1;HPM_P2
2023/03/07 00:00:14;;;;;;;12.90;10.03;;;5.00;99.90;;;;;;5093347;28;20486;-57
2023/03/07 00:02:40;;;;;;;13.80;9.97;;;5.00;99.90;;;;;;5093377;28;20837;-57
2023/03/07 00:05:08;;;;;;;15.03;10.47;;;4.90;99.90;;;;;;5093312;28;20452;-57
2023/03/07 00:07:35;;;;;;;17.60;10.77;;;4.90;99.90;;;;;;5093362;28;20448;-57
2023/03/07 00:10:02;;;;;;;14.53;10.03;;;4.90;99.90;;;;;;5095291;28;20863;-57
2023/03/07 00:12:30;;;;;;;18.27;11.47;;;4.90;99.90;;;;;;5097566;28;20483;-57
2023/03/07 00:14:57;;;;;;;13.10;10.30;;;4.90;99.90;;;;;;5097272;28;20451;-56
2023/03/07 00:17:23;;;;;;;13.57;10.40;;;4.90;99.90;;;;;;5097887;28;20439;-57
2023/03/07 00:19:50;;;;;;;14.93;9.50;;;4.90;99.90;;;;;;5097328;28;20464;-57
2023/03/07 00:22:16;;;;;;;15.63;10.13;;;5.00;99.90;;;;;;5096989;28;20444;-57
2023/03/07 00:24:43;;;;;;;13.93;10.43;;;5.00;99.90;;;;;;5097374;28;20447;-57
2023/03/07 00:27:10;;;;;;;12.50;9.40;;;4.90;99.90;;;;;;5097320;28;20811;-57
2023/03/07 00:29:38;;;;;;;12.50;10.33;;;4.90;99.90;;;;;;5097295;28;20476;-57
2023/03/07 00:32:05;;;;;;;15.87;10.50;;;4.90;99.90;;;;;;5098270;28;20508;-57
2023/03/07 00:34:32;;;;;;;15.10;10.60;;;5.00;99.90;;;;;;5097844;28;20452;-57
2023/03/07 00:36:59;;;;;;;13.47;9.97;;;4.90;99.90;;;;;;5097322;28;20443;-57
2023/03/07 00:39:26;;;;;;;13.50;10.67;;;5.00;99.90;;;;;;5097184;28;20459;-57
2023/03/07 00:41:52;;;;;;;14.87;10.40;;;5.00;99.90;;;;;;5096866;28;20869;-57
2023/03/07 00:44:19;;;;;;;12.10;10.60;;;5.00;99.90;;;;;;5096933;28;20850;-57
2023/03/07 00:46:47;;;;;;;13.47;10.17;;;4.90;99.90;;;;;;5096546;28;20964;-57
2023/03/07 00:49:13;;;;;;;15.00;10.03;;;5.00;99.90;;;;;;5096866;28;20450;-57
2023/03/07 00:51:40;;;;;;;12.37;9.97;;;5.00;99.90;;;;;;5096751;28;20446;-57
2023/03/07 00:54:07;;;;;;;13.70;9.90;;;5.00;99.90;;;;;;5096481;28;20482;-57
2023/03/07 00:56:33;;;;;;;12.33;9.63;;;5.00;99.90;;;;;;5096322;28;20938;-57
2023/03/07 00:59:00;;;;;;;13.23;10.20;;;5.10;99.90;;;;;;5096271;28;20436;-57
2023/03/07 01:01:27;;;;;;;13.23;9.63;;;5.10;99.90;;;;;;5096431;28;20490;-57
2023/03/07 01:03:55;;;;;;;11.17;9.30;;;5.10;99.90;;;;;;5096529;28;20466;-57
2023/03/07 01:06:23;;;;;;;13.00;9.07;;;5.10;99.90;;;;;;5096198;28;20941;-57
2023/03/07 01:08:50;;;;;;;11.47;8.53;;;5.10;99.90;;;;;;5096330;28;20448;-57
2023/03/07 01:11:17;;;;;;;12.10;10.10;;;5.10;99.90;;;;;;5096187;28;20985;-56
2023/03/07 01:13:44;;;;;;;12.27;8.93;;;5.10;99.90;;;;;;5096355;28;20505;-56
2023/03/07 01:16:13;;;;;;;11.70;9.13;;;5.10;99.90;;;;;;5096374;28;20451;-56
2023/03/07 01:18:41;;;;;;;12.60;9.80;;;5.10;99.90;;;;;;5095926;28;20972;-56
2023/03/07 01:21:14;;;;;;;10.40;8.50;;;5.10;99.90;;;;;;5095963;28;20475;-56
2023/03/07 01:23:40;;;;;;;9.87;8.03;;;5.10;99.90;;;;;;5095804;28;20854;-56
2023/03/07 01:26:07;;;;;;;10.50;8.63;;;5.20;99.90;;;;;;5096206;28;20451;-56
2023/03/07 01:28:34;;;;;;;9.43;8.17;;;5.20;99.90;;;;;;5095982;28;20471;-56
2023/03/07 01:31:00;;;;;;;8.73;7.07;;;5.20;99.90;;;;;;5096011;28;20464;-56
2023/03/07 01:33:27;;;;;;;10.23;7.90;;;5.20;99.90;;;;;;5095949;28;20600;-56
2023/03/07 01:35:54;;;;;;;10.37;8.33;;;5.20;99.90;;;;;;5095866;28;20440;-55
2023/03/07 01:38:22;;;;;;;10.60;8.10;;;5.20;99.90;;;;;;5095889;28;20440;-56
2023/03/07 01:40:49;;;;;;;9.13;7.43;;;5.20;99.90;;;;;;5095827;28;20807;-56
2023/03/07 01:43:27;;;;;;;8.50;7.60;;;5.20;99.90;;;;;;5095445;28;20960;-56
2023/03/07 01:46:37;;;;;;;10.00;7.93;;;5.20;99.90;;;;;;5095711;28;20434;-56
2023/03/07 01:49:08;;;;;;;14.23;7.37;;;5.20;99.90;;;;;;5095709;28;20508;-56
2023/03/07 01:51:37;;;;;;;8.83;6.70;;;5.20;99.90;;;;;;5095613;28;20428;-56
2023/03/07 01:54:07;;;;;;;6.73;6.03;;;5.30;99.90;;;;;;5095153;28;20486;-56
2023/03/07 01:56:36;;;;;;;10.27;6.77;;;5.30;99.90;;;;;;5095485;28;20448;-56
2023/03/07 01:59:03;;;;;;;7.40;6.70;;;5.20;99.90;;;;;;5096280;28;20455;-56
2023/03/07 02:01:30;;;;;;;6.97;6.03;;;5.20;99.90;;;;;;5095141;28;20990;-56
2023/03/07 02:04:00;;;;;;;7.80;6.77;;;5.20;99.90;;;;;;5095364;28;20498;-56
2023/03/07 02:06:30;;;;;;;8.50;7.17;;;5.10;99.90;;;;;;5095358;28;20803;-56
2023/03/07 02:08:58;;;;;;;7.87;6.83;;;5.10;99.90;;;;;;5095099;28;20451;-56
2023/03/07 02:11:26;;;;;;;11.17;7.70;;;5.20;99.90;;;;;;5095234;28;20471;-56
2023/03/07 02:13:53;;;;;;;9.07;7.93;;;5.10;99.90;;;;;;5095021;28;20483;-56
2023/03/07 02:16:20;;;;;;;10.20;8.70;;;5.20;99.90;;;;;;5094771;28;20800;-56
2023/03/07 02:18:49;;;;;;;7.10;6.27;;;5.20;99.90;;;;;;5094753;28;20973;-56
2023/03/07 02:21:24;;;;;;;7.50;6.70;;;5.10;99.90;;;;;;5095024;28;20472;-55
2023/03/07 02:23:57;;;;;;;9.13;6.30;;;5.10;99.90;;;;;;5094678;28;20847;-56
2023/03/07 02:26:43;;;;;;;7.87;7.07;;;5.10;99.90;;;;;;5094974;28;20443;-56
2023/03/07 02:29:11;;;;;;;10.17;8.03;;;5.20;99.90;;;;;;5094916;28;20428;-56
2023/03/07 02:31:38;;;;;;;8.20;7.07;;;5.20;99.90;;;;;;5094218;28;20522;-56
2023/03/07 02:34:21;;;;;;;10.10;7.90;;;5.20;99.90;;;;;;5094373;28;21001;-56
2023/03/07 02:36:50;;;;;;;9.60;7.70;;;5.20;99.90;;;;;;5095319;28;20432;-56
2023/03/07 02:39:18;;;;;;;11.30;9.30;;;5.10;99.90;;;;;;5094608;28;20862;-57
2023/03/07 02:41:46;;;;;;;11.60;9.50;;;5.20;99.90;;;;;;5094626;28;20447;-56
2023/03/07 02:44:13;;;;;;;13.33;10.20;;;5.20;99.90;;;;;;5094503;28;20450;-56
2023/03/07 02:46:39;;;;;;;13.80;11.40;;;5.20;99.90;;;;;;5094543;28;20501;-56
2023/03/07 02:49:06;;;;;;;15.60;11.50;;;5.20;99.90;;;;;;5094149;28;20452;-56
2023/03/07 02:51:33;;;;;;;13.00;10.20;;;5.20;99.90;;;;;;5094240;28;20452;-56
2023/03/07 02:54:00;;;;;;;14.87;11.47;;;5.30;99.90;;;;;;5094267;28;20533;-56
2023/03/07 02:56:27;;;;;;;18.37;11.20;;;5.30;99.90;;;;;;5094333;28;20452;-57
2023/03/07 02:58:55;;;;;;;13.43;10.70;;;5.30;99.90;;;;;;5094323;28;20460;-56
2023/03/07 03:01:22;;;;;;;17.20;11.10;;;5.20;99.90;;;;;;5094331;28;20474;-56
2023/03/07 03:03:48;;;;;;;13.80;9.70;;;5.20;99.90;;;;;;5094214;28;20448;-57
2023/03/07 03:06:15;;;;;;;14.53;11.50;;;5.20;99.90;;;;;;5094243;28;20444;-56
2023/03/07 03:08:42;;;;;;;12.00;10.43;;;5.30;99.90;;;;;;5094058;28;20440;-56
2023/03/07 03:11:08;;;;;;;12.20;9.20;;;5.20;99.90;;;;;;5093971;28;20484;-57
2023/03/07 03:13:35;;;;;;;13.97;10.10;;;5.20;99.90;;;;;;5093997;28;20475;-57
2023/03/07 03:16:04;;;;;;;17.20;12.47;;;5.20;99.90;;;;;;5094017;28;20448;-57
2023/03/07 03:18:31;;;;;;;12.67;9.30;;;5.20;99.90;;;;;;5094024;28;20443;-57
2023/03/07 03:21:00;;;;;;;17.20;9.73;;;5.20;99.90;;;;;;5094061;28;21003;-57
2023/03/07 03:23:28;;;;;;;12.00;9.20;;;5.20;99.90;;;;;;5095641;28;20439;-57
2023/03/07 03:25:58;;;;;;;13.17;10.40;;;5.20;99.90;;;;;;5094855;28;20444;-56
2023/03/07 03:28:25;;;;;;;12.83;9.57;;;5.20;99.90;;;;;;5094353;28;20455;-57
2023/03/07 03:30:59;;;;;;;15.17;10.63;;;5.10;99.90;;;;;;5093934;28;20464;-57
2023/03/07 03:33:29;;;;;;;13.10;11.30;;;5.20;99.90;;;;;;5093481;28;20996;-57
2023/03/07 03:35:55;;;;;;;14.77;10.77;;;5.20;99.90;;;;;;5093907;28;20523;-56
2023/03/07 03:38:22;;;;;;;13.93;11.63;;;5.20;99.90;;;;;;5093671;28;20444;-57
2023/03/07 03:40:49;;;;;;;12.80;10.23;;;5.20;99.90;;;;;;5093324;28;20468;-57
2023/03/07 03:43:15;;;;;;;12.97;10.30;;;5.20;99.90;;;;;;5092881;28;20956;-57
2023/03/07 03:45:42;;;;;;;16.30;11.03;;;5.20;99.90;;;;;;5093024;28;20820;-57
2023/03/07 03:48:09;;;;;;;14.03;10.40;;;5.20;99.90;;;;;;5093540;28;20455;-57
2023/03/07 03:50:37;;;;;;;14.83;11.37;;;5.10;99.90;;;;;;5093182;28;21004;-57
2023/03/07 03:53:04;;;;;;;12.77;11.10;;;5.20;99.90;;;;;;5093467;28;20452;-57
2023/03/07 03:55:30;;;;;;;18.33;10.90;;;5.20;99.90;;;;;;5093231;28;20443;-57
2023/03/07 03:57:58;;;;;;;15.40;11.70;;;5.10;99.90;;;;;;5093248;28;20941;-57
2023/03/07 04:00:25;;;;;;;13.90;11.13;;;5.10;99.90;;;;;;5093484;28;20467;-56
2023/03/07 04:02:52;;;;;;;15.40;9.50;;;5.10;99.90;;;;;;5093417;28;20440;-56
2023/03/07 04:05:18;;;;;;;13.00;10.40;;;5.10;99.90;;;;;;5093688;28;20451;-56
2023/03/07 04:07:46;;;;;;;15.90;10.33;;;5.10;99.90;;;;;;5093385;28;20451;-57
2023/03/07 04:10:13;;;;;;;17.33;12.40;;;5.10;99.90;;;;;;5093169;28;20558;-57
2023/03/07 04:12:40;;;;;;;14.40;10.70;;;5.00;99.90;;;;;;5093370;28;20443;-57
2023/03/07 04:15:08;;;;;;;16.47;11.57;;;5.00;99.90;;;;;;5093323;28;20502;-57
2023/03/07 04:17:35;;;;;;;15.73;11.30;;;5.00;99.90;;;;;;5093266;28;20448;-57
2023/03/07 04:20:03;;;;;;;14.70;12.67;;;5.00;99.90;;;;;;5093360;28;20529;-57
2023/03/07 04:22:30;;;;;;;13.87;11.43;;;5.00;99.90;;;;;;5093415;28;20454;-56
2023/03/07 04:24:58;;;;;;;13.20;10.90;;;5.00;99.90;;;;;;5092974;28;20934;-56
2023/03/07 04:27:24;;;;;;;15.30;11.23;;;5.00;99.90;;;;;;5093276;28;20451;-56
2023/03/07 04:29:51;;;;;;;13.80;11.20;;;5.00;99.90;;;;;;5093139;28;20472;-56
2023/03/07 04:32:18;;;;;;;14.43;11.87;;;5.00;99.90;;;;;;5093140;28;20532;-56
2023/03/07 04:34:44;;;;;;;16.43;12.47;;;5.00;99.90;;;;;;5093054;28;20556;-56
2023/03/07 04:37:11;;;;;;;18.23;11.77;;;5.00;99.90;;;;;;5092800;28;20835;-56
2023/03/07 04:39:38;;;;;;;15.27;12.57;;;5.00;99.90;;;;;;5093051;28;20683;-57
2023/03/07 04:42:06;;;;;;;17.60;11.90;;;5.00;99.90;;;;;;5092414;28;20451;-56
2023/03/07 04:44:33;;;;;;;13.10;11.70;;;5.10;99.90;;;;;;5092824;28;20849;-56
2023/03/07 04:46:59;;;;;;;16.63;13.20;;;5.10;99.90;;;;;;5093086;28;20451;-56
2023/03/07 04:49:26;;;;;;;17.00;12.77;;;5.00;99.90;;;;;;5092949;28;20471;-57
2023/03/07 04:51:53;;;;;;;14.83;11.23;;;5.10;99.90;;;;;;5092642;28;20455;-56
2023/03/07 04:54:19;;;;;;;17.17;13.53;;;5.10;99.90;;;;;;5092938;28;20483;-57
2023/03/07 04:56:46;;;;;;;14.60;12.03;;;5.10;99.90;;;;;;5096302;28;20443;-56
2023/03/07 04:59:14;;;;;;;18.80;12.33;;;5.10;99.90;;;;;;5096609;28;20452;-56
2023/03/07 05:01:41;;;;;;;18.30;12.07;;;5.10;99.90;;;;;;5096640;28;20452;-57
2023/03/07 05:04:07;;;;;;;16.20;12.80;;;5.00;99.90;;;;;;5096596;28;20447;-56
2023/03/07 05:06:34;;;;;;;16.00;12.20;;;5.00;99.90;;;;;;5096254;28;20960;-56
2023/03/07 05:09:01;;;;;;;15.37;11.60;;;5.10;99.90;;;;;;5096314;28;20447;-56
2023/03/07 05:11:27;;;;;;;14.13;11.43;;;5.10;99.90;;;;;;5096409;28;20482;-56
2023/03/07 05:13:54;;;;;;;14.07;11.20;;;5.10;99.90;;;;;;5096313;28;20929;-56
2023/03/07 05:16:22;;;;;;;14.47;10.80;;;5.10;99.90;;;;;;5096301;28;20448;-56
2023/03/07 05:18:49;;;;;;;15.77;11.27;;;5.00;99.90;;;;;;5096239;28;20451;-56
2023/03/07 05:21:15;;;;;;;14.40;10.90;;;5.10;99.90;;;;;;5096199;28;20471;-56
2023/03/07 05:23:42;;;;;;;14.77;11.30;;;5.10;99.90;;;;;;5096195;28;20447;-56
2023/03/07 05:26:09;;;;;;;12.33;10.20;;;5.10;99.90;;;;;;5096053;28;20454;-56
2023/03/07 05:28:35;;;;;;;15.60;12.03;;;5.00;99.90;;;;;;5096041;28;20455;-56
2023/03/07 05:31:02;;;;;;;14.30;11.53;;;5.10;99.90;;;;;;5095935;28;20517;-56
2023/03/07 05:33:30;;;;;;;12.53;10.27;;;5.10;99.90;;;;;;5095897;28;20454;-56
2023/03/07 05:35:59;;;;;;;14.27;11.70;;;5.10;99.90;;;;;;5095957;28;20490;-56
2023/03/07 05:38:26;;;;;;;14.13;10.97;;;5.00;99.90;;;;;;5095864;28;20458;-56
2023/03/07 05:40:53;;;;;;;16.10;12.27;;;5.10;99.90;;;;;;5095956;28;20467;-56
2023/03/07 05:43:19;;;;;;;15.07;12.03;;;5.10;99.90;;;;;;5096017;28;20471;-56
2023/03/07 05:45:46;;;;;;;15.17;11.67;;;5.10;99.90;;;;;;5095745;28;20448;-57
2023/03/07 05:48:13;;;;;;;19.13;12.60;;;5.10;99.90;;;;;;5095319;28;20855;-57
2023/03/07 05:50:41;;;;;;;17.70;11.73;;;5.10;99.90;;;;;;5095584;28;20464;-57
2023/03/07 05:53:08;;;;;;;14.80;11.80;;;5.10;99.90;;;;;;5095500;28;20479;-56
2023/03/07 05:55:35;;;;;;;18.33;13.13;;;5.20;99.90;;;;;;5095245;28;20479;-57
2023/03/07 05:58:01;;;;;;;15.47;11.97;;;5.10;99.90;;;;;;5095471;28;20945;-57
2023/03/07 06:00:28;;;;;;;16.70;12.60;;;5.20;99.90;;;;;;5095340;28;20471;-57
2023/03/07 06:02:55;;;;;;;15.43;12.10;;;5.20;99.90;;;;;;5095312;28;20447;-57
2023/03/07 06:05:22;;;;;;;18.13;11.90;;;5.20;99.90;;;;;;5095431;28;20444;-57
2023/03/07 06:07:50;;;;;;;15.83;12.07;;;5.10;99.90;;;;;;5094522;28;20447;-57
2023/03/07 06:10:17;;;;;;;13.93;11.60;;;5.20;99.90;;;;;;5096401;28;20899;-57
2023/03/07 06:12:44;;;;;;;17.23;12.47;;;5.20;99.90;;;;;;5100020;28;20785;-57
2023/03/07 06:15:11;;;;;;;16.03;12.37;;;5.20;99.90;;;;;;5099419;28;20537;-57
2023/03/07 06:17:37;;;;;;;17.07;12.53;;;5.20;99.90;;;;;;5099254;28;20450;-57
2023/03/07 06:20:05;;;;;;;16.37;11.07;;;5.20;99.90;;;;;;5097744;28;20514;-56
2023/03/07 06:22:33;;;;;;;15.00;11.80;;;5.20;99.90;;;;;;5095240;28;20447;-57
2023/03/07 06:25:03;;;;;;;16.37;12.57;;;5.20;99.90;;;;;;5095018;28;20480;-56
2023/03/07 06:27:32;;;;;;;14.87;12.07;;;5.20;99.90;;;;;;5095098;28;20432;-57
2023/03/07 06:29:59;;;;;;;14.70;10.90;;;5.20;99.90;;;;;;5095043;28;20476;-56
2023/03/07 06:32:25;;;;;;;15.47;12.20;;;5.20;99.90;;;;;;5095198;28;20796;-56
2023/03/07 06:34:52;;;;;;;14.90;11.20;;;5.30;99.90;;;;;;5094608;28;20880;-56
2023/03/07 06:37:19;;;;;;;15.57;11.03;;;5.30;99.90;;;;;;5094969;28;20443;-56
2023/03/07 06:39:46;;;;;;;16.37;12.27;;;5.30;99.90;;;;;;5095063;28;20464;-56
2023/03/07 06:42:14;;;;;;;14.67;10.73;;;5.30;99.90;;;;;;5094826;28;20446;-56
2023/03/07 06:44:40;;;;;;;16.10;11.80;;;5.40;99.90;;;;;;5095141;28;20455;-56
2023/03/07 06:47:07;;;;;;;16.33;12.20;;;5.40;99.90;;;;;;5094311;28;20960;-57
2023/03/07 06:49:34;;;;;;;13.63;10.20;;;5.40;99.90;;;;;;5094558;28;20460;-56
2023/03/07 06:52:00;;;;;;;15.20;11.43;;;5.40;99.90;;;;;;5094212;28;20971;-56
2023/03/07 06:54:27;;;;;;;17.53;11.20;;;5.40;99.90;;;;;;5094092;28;21110;-56
2023/03/07 06:56:54;;;;;;;16.70;11.80;;;5.40;99.90;;;;;;5094129;28;20964;-56
2023/03/07 06:59:22;;;;;;;19.00;11.33;;;5.40;99.90;;;;;;5094286;28;20478;-56
2023/03/07 07:01:49;;;;;;;16.90;10.47;;;5.50;99.90;;;;;;5094324;28;20451;-56
2023/03/07 07:04:15;;;;;;;13.90;10.57;;;5.50;99.90;;;;;;5094261;28;20448;-57
2023/03/07 07:06:42;;;;;;;14.90;11.33;;;5.50;99.90;;;;;;5094178;28;20447;-57
2023/03/07 07:09:12;;;;;;;17.37;11.97;;;5.50;99.90;;;;;;5093669;28;20983;-57
2023/03/07 07:11:39;;;;;;;16.47;11.10;;;5.60;99.90;;;;;;5094155;28;20518;-57
2023/03/07 07:14:06;;;;;;;14.50;11.20;;;5.60;99.90;;;;;;5093972;28;20443;-57
2023/03/07 07:16:35;;;;;;;20.63;11.87;;;5.60;99.90;;;;;;5093667;28;20448;-57
2023/03/07 07:19:01;;;;;;;21.37;11.23;;;5.60;99.90;;;;;;5093491;28;20452;-57
2023/03/07 07:21:28;;;;;;;13.97;10.30;;;5.60;99.90;;;;;;5093949;28;20486;-57
2023/03/07 07:23:56;;;;;;;14.73;11.10;;;5.70;99.90;;;;;;5093882;28;20527;-57
2023/03/07 07:26:23;;;;;;;15.83;10.60;;;5.70;99.90;;;;;;5093848;28;20447;-57
2023/03/07 07:28:50;;;;;;;20.50;11.83;;;5.70;99.90;;;;;;5093778;28;20497;-56
2023/03/07 07:31:16;;;;;;;14.47;9.63;;;5.70;99.90;;;;;;5093768;28;20463;-56
2023/03/07 07:33:45;;;;;;;17.77;9.97;;;5.70;99.90;;;;;;5093790;28;20455;-56
2023/03/07 07:36:12;;;;;;;13.83;10.33;;;5.60;99.90;;;;;;5093568;28;20487;-56
2023/03/07 07:38:38;;;;;;;15.60;10.50;;;5.60;99.90;;;;;;5093692;28;20451;-56
2023/03/07 07:41:05;;;;;;;16.77;10.80;;;5.60;99.90;;;;;;5093240;28;20464;-57
2023/03/07 07:43:32;;;;;;;15.73;9.90;;;5.60;99.90;;;;;;5093236;28;20958;-56
2023/03/07 07:45:59;;;;;;;13.70;10.40;;;5.60;99.90;;;;;;5093391;28;20452;-56
2023/03/07 07:48:25;;;;;;;13.70;10.07;;;5.60;99.90;;;;;;5093624;28;20452;-57
2023/03/07 07:50:53;;;;;;;11.90;9.43;;;5.70;99.90;;;;;;5093499;28;20517;-56
2023/03/07 07:53:20;;;;;;;12.83;8.93;;;5.70;99.90;;;;;;5093525;28;20447;-56
2023/03/07 07:55:47;;;;;;;12.30;9.80;;;5.60;99.90;;;;;;5093438;28;20475;-56
2023/03/07 07:58:14;;;;;;;12.53;10.03;;;5.60;99.90;;;;;;5093183;28;20983;-56
2023/03/07 08:00:44;;;;;;;12.53;9.27;;;5.60;99.90;;;;;;5093336;28;20468;-56
2023/03/07 08:03:11;;;;;;;12.33;9.43;;;5.50;99.90;;;;;;5093377;28;20444;-56
2023/03/07 08:05:43;;;;;;;11.53;8.67;;;5.50;99.90;;;;;;5093759;28;20813;-56
2023/03/07 08:08:11;;;;;;;11.47;9.00;;;5.60;99.90;;;;;;5093354;28;20432;-56
2023/03/07 08:10:41;;;;;;;11.93;7.73;;;5.70;99.90;;;;;;5092964;28;20487;-56
2023/03/07 08:13:08;;;;;;;10.80;7.90;;;5.60;99.90;;;;;;5093152;28;20949;-57
2023/03/07 08:15:35;;;;;;;11.93;9.00;;;5.60;99.90;;;;;;5093255;28;20515;-57
2023/03/07 08:18:02;;;;;;;11.63;8.43;;;5.50;99.90;;;;;;5093354;28;20456;-57
2023/03/07 08:20:29;;;;;;;11.93;8.70;;;5.60;99.90;;;;;;5093340;28;20471;-57
2023/03/07 08:22:55;;;;;;;11.07;9.33;;;5.60;99.90;;;;;;5092899;28;20444;-57
2023/03/07 08:25:24;;;;;;;11.73;8.10;;;5.70;99.90;;;;;;5093193;28;20451;-57
2023/03/07 08:27:53;;;;;;;9.47;8.20;;;5.70;99.90;;;;;;5093729;28;20452;-57
2023/03/07 08:30:20;;;;;;;13.67;8.17;;;5.70;99.90;;;;;;5094284;28;20517;-57
2023/03/07 08:32:49;;;;;;;13.13;7.90;;;5.70;99.90;;;;;;5096829;28;20959;-57
2023/03/07 08:35:16;;;;;;;11.00;7.83;;;5.80;99.90;;;;;;5097013;28;20511;-57
2023/03/07 08:37:43;;;;;;;10.43;9.03;;;5.90;99.90;;;;;;5097093;28;20470;-57
2023/03/07 08:40:11;;;;;;;10.73;7.77;;;5.90;99.90;;;;;;5096906;28;20536;-56
2023/03/07 08:42:39;;;;;;;10.43;8.20;;;5.90;99.90;;;;;;5096873;28;20446;-57
2023/03/07 08:45:06;;;;;;;11.07;8.40;;;5.90;99.90;;;;;;5096856;28;20458;-56
2023/03/07 08:47:33;;;;;;;11.03;7.80;;;5.90;99.90;;;;;;5096530;28;20990;-56
2023/03/07 08:49:59;;;;;;;11.27;7.93;;;5.90;99.90;;;;;;5096758;28;20480;-56
2023/03/07 08:52:26;;;;;;;12.30;8.10;;;5.90;99.90;;;;;;5096445;28;20475;-56
2023/03/07 08:54:53;;;;;;;10.40;8.43;;;5.80;99.90;;;;;;5096728;28;20483;-56
2023/03/07 08:57:19;;;;;;;10.97;7.90;;;5.80;99.90;;;;;;5096809;28;20451;-56
2023/03/07 08:59:47;;;;;;;9.97;7.80;;;5.90;99.90;;;;;;5096746;28;20467;-56
2023/03/07 09:02:14;;;;;;;12.00;8.00;;;5.90;99.90;;;;;;5097761;28;20447;-56
2023/03/07 09:04:41;;;;;;;9.70;8.10;;;5.90;99.90;;;;;;5097415;28;20443;-56
2023/03/07 09:07:07;;;;;;;9.70;7.83;;;5.90;99.90;;;;;;5097116;28;20473;-56
2023/03/07 09:09:34;;;;;;;10.20;8.07;;;5.80;99.90;;;;;;5096234;28;20505;-56
2023/03/07 09:12:01;;;;;;;11.10;8.60;;;5.80;99.90;;;;;;5096680;28;20447;-56
2023/03/07 09:14:27;;;;;;;12.80;8.60;;;5.90;99.90;;;;;;5096456;28;20530;-56
2023/03/07 09:16:55;;;;;;;9.70;7.60;;;5.90;99.90;;;;;;5096241;28;20479;-55
2023/03/07 09:19:23;;;;;;;10.07;9.07;;;5.90;99.90;;;;;;5095889;28;20949;-56
2023/03/07 09:21:50;;;;;;;14.53;8.50;;;5.90;99.90;;;;;;5096262;28;20530;-56
2023/03/07 09:24:17;;;;;;;11.80;8.53;;;6.00;99.90;;;;;;5096219;28;20448;-56
2023/03/07 09:26:43;;;;;;;10.87;8.90;;;5.90;99.90;;;;;;5096195;28;20473;-56
2023/03/07 09:29:10;;;;;;;11.47;7.97;;;6.00;99.90;;;;;;5095714;28;20960;-56
2023/03/07 09:31:37;;;;;;;11.30;8.27;;;6.00;99.90;;;;;;5095697;28;20957;-56
2023/03/07 09:34:05;;;;;;;11.63;8.70;;;6.00;99.90;;;;;;5095976;28;20435;-56
2023/03/07 09:36:31;;;;;;;9.67;7.37;;;6.00;99.90;;;;;;5095890;28;20549;-55
2023/03/07 09:38:58;;;;;;;11.43;7.83;;;6.10;99.90;;;;;;5095899;28;20451;-55
2023/03/07 09:41:42;;;;;;;12.03;7.80;;;6.10;99.90;;;;;;5095770;28;20471;-56
2023/03/07 09:44:18;;;;;;;10.23;8.20;;;6.10;99.90;;;;;;5095972;28;20443;-56
2023/03/07 09:46:58;;;;;;;8.90;7.97;;;6.10;99.90;;;;;;5095873;28;20443;-56
2023/03/07 09:49:32;;;;;;;9.63;7.63;;;6.10;99.90;;;;;;5095662;28;20435;-56
2023/03/07 09:52:00;;;;;;;8.20;7.30;;;6.00;99.90;;;;;;5095792;28;20424;-56
2023/03/07 09:54:34;;;;;;;14.50;9.13;;;6.10;99.90;;;;;;5095685;28;20497;-56
2023/03/07 09:57:03;;;;;;;16.80;9.57;;;6.10;99.90;;;;;;5095592;28;20466;-56
2023/03/07 09:59:35;;;;;;;12.20;9.37;;;6.10;99.90;;;;;;5095477;28;20471;-56
2023/03/07 10:02:11;;;;;;;11.27;9.53;;;6.20;99.90;;;;;;5095881;28;20778;-56
2023/03/07 10:04:45;;;;;;;10.77;8.50;;;6.10;99.90;;;;;;5095153;28;20447;-56
2023/03/07 10:07:14;;;;;;;13.77;9.93;;;6.00;99.90;;;;;;5095556;28;20423;-55
2023/03/07 10:09:41;;;;;;;12.80;9.03;;;6.00;99.90;;;;;;5094986;28;20906;-55
2023/03/07 10:12:23;;;;;;;12.87;9.40;;;6.00;99.90;;;;;;5095361;28;20443;-56
2023/03/07 10:15:17;;;;;;;13.17;10.13;;;5.90;99.90;;;;;;5095190;28;20493;-56
2023/03/07 10:18:05;;;;;;;10.80;8.40;;;5.90;99.90;;;;;;5092278;28;20475;-56
2023/03/07 10:20:41;;;;;;;4.17;3.77;;;6.00;99.90;;;;;;5094712;28;21049;-56
2023/03/07 10:23:24;;;;;;;3.67;3.27;;;6.00;99.90;;;;;;5095061;28;20435;-56
2023/03/07 10:25:54;;;;;;;2.40;2.20;;;6.00;99.90;;;;;;5094721;28;20800;-56
2023/03/07 10:28:24;;;;;;;2.63;2.43;;;5.80;99.90;;;;;;5094903;28;20968;-56
2023/03/07 10:30:54;;;;;;;2.67;2.30;;;5.70;99.90;;;;;;5094858;28;20476;-56
2023/03/07 10:33:21;;;;;;;2.30;2.10;;;5.60;99.90;;;;;;5094864;28;20442;-56
2023/03/07 10:35:55;;;;;;;3.63;1.93;;;5.50;99.90;;;;;;5094360;28;20550;-56
2023/03/07 10:38:28;;;;;;;2.43;2.23;;;5.40;99.90;;;;;;5094761;28;20428;-56
2023/03/07 10:41:00;;;;;;;2.37;2.17;;;5.40;99.90;;;;;;5094714;28;20468;-56
2023/03/07 10:43:29;;;;;;;2.23;2.07;;;5.40;99.90;;;;;;5094675;28;20428;-56
2023/03/07 10:46:00;;;;;;;2.40;2.20;;;5.40;99.90;;;;;;5094244;28;20937;-56
2023/03/07 10:48:29;;;;;;;2.30;2.10;;;5.40;99.90;;;;;;5094553;28;20436;-56
2023/03/07 10:51:06;;;;;;;2.60;2.00;;;5.50;99.90;;;;;;5094131;28;20889;-56
2023/03/07 10:53:36;;;;;;;2.27;2.07;;;5.50;99.90;;;;;;5094040;28;20442;-56
2023/03/07 10:56:12;;;;;;;1.83;1.73;;;5.50;99.90;;;;;;5094346;28;20479;-56
2023/03/07 10:58:40;;;;;;;2.17;1.90;;;5.50;99.90;;;;;;5094453;28;20424;-56
2023/03/07 11:01:19;;;;;;;2.40;2.20;;;5.40;99.90;;;;;;5094258;28;20476;-56
2023/03/07 11:03:49;;;;;;;2.03;1.83;;;5.40;99.90;;;;;;5094318;28;20428;-56
2023/03/07 11:06:35;;;;;;;1.60;1.50;;;5.30;99.90;;;;;;5094267;28;20433;-56
2023/03/07 11:09:17;;;;;;;1.80;1.70;;;5.20;99.90;;;;;;5094465;28;20436;-56
2023/03/07 11:11:51;;;;;;;2.17;2.07;;;5.20;99.90;;;;;;5094149;28;20436;-56
2023/03/07 11:14:20;;;;;;;2.07;1.87;;;5.20;99.90;;;;;;5094070;28;20432;-56
2023/03/07 11:16:52;;;;;;;2.30;2.10;;;5.20;99.90;;;;;;5094000;28;20479;-56
2023/03/07 11:19:39;;;;;;;2.30;2.10;;;5.30;99.90;;;;;;5093924;28;20450;-56
2023/03/07 11:22:19;;;;;;;1.83;1.73;;;5.30;99.90;;;;;;5094001;28;20538;-55
2023/03/07 11:24:56;;;;;;;2.20;1.77;;;5.40;99.90;;;;;;5093638;28;20941;-56
2023/03/07 11:27:30;;;;;;;2.03;1.83;;;5.40;99.90;;;;;;5093869;28;20443;-56
2023/03/07 11:30:22;;;;;;;1.43;1.33;;;5.40;99.90;;;;;;5093938;28;20849;-56
2023/03/07 11:32:57;;;;;;;2.10;1.90;;;5.40;99.90;;;;;;5079453;28;20937;-56
2023/03/07 11:35:34;;;;;;;2.30;2.10;;;5.40;99.90;;;;;;5093675;28;20428;-56
2023/03/07 11:38:07;;;;;;;1.80;1.70;;;5.50;99.90;;;;;;5093756;28;20439;-56
2023/03/07 11:40:41;;;;;;;1.73;1.63;;;5.60;99.90;;;;;;5093684;28;20463;-56
2023/03/07 11:43:20;;;;;;;1.57;1.47;;;5.50;99.90;;;;;;5093636;28;20428;-56
2023/03/07 11:45:52;;;;;;;1.60;1.50;;;5.50;99.90;;;;;;5093686;28;20424;-56
2023/03/07 11:48:32;;;;;;;1.60;1.50;;;5.40;99.90;;;;;;5093955;28;20455;-56
2023/03/07 11:51:02;;;;;;;1.77;1.63;;;5.50;99.90;;;;;;5094723;28;20475;-56
2023/03/07 11:53:42;;;;;;;4.60;4.10;;;5.50;99.90;;;;;;5093733;28;20448;-56
2023/03/07 11:56:19;;;;;;;6.33;5.30;;;5.60;99.90;;;;;;5093894;28;20475;-56
2023/03/07 11:59:02;;;;;;;11.70;5.70;;;5.70;99.90;;;;;;5093649;28;20428;-56
2023/03/07 12:01:38;;;;;;;8.00;3.70;;;5.80;99.90;;;;;;5093440;28;20456;-56
2023/03/07 12:04:32;;;;;;;3.73;3.30;;;5.90;99.90;;;;;;5093495;28;20431;-56
2023/03/07 12:07:10;;;;;;;8.20;6.70;;;5.90;99.90;;;;;;5097603;28;20431;-56
2023/03/07 12:09:51;;;;;;;5.10;3.77;;;6.00;99.90;;;;;;5097221;28;20515;-56
2023/03/07 12:12:37;;;;;;;3.30;3.00;;;6.10;99.90;;;;;;5097259;28;20816;-56
2023/03/07 12:15:17;;;;;;;2.53;2.33;;;6.10;99.90;;;;;;5097607;28;20438;-56
2023/03/07 12:17:55;;;;;;;3.50;3.07;;;6.00;99.90;;;;;;5097466;28;20467;-56
2023/03/07 12:20:30;;;;;;;2.60;2.40;;;6.00;99.90;;;;;;5097394;28;20875;-56
2023/03/07 12:23:09;;;;;;;2.80;2.60;;;6.00;99.90;;;;;;5097620;28;20431;-56
2023/03/07 12:25:39;;;;;;;3.23;2.93;;;6.00;99.90;;;;;;5097569;28;20428;-57
2023/03/07 12:28:14;;;;;;;2.93;2.73;;;6.00;99.90;;;;;;5097371;28;20489;-57
2023/03/07 12:30:55;;;;;;;2.73;2.53;;;6.00;99.90;;;;;;5097422;28;20455;-57
2023/03/07 12:33:29;;;;;;;2.90;2.60;;;6.00;99.90;;;;;;5097265;28;20431;-57
2023/03/07 12:36:00;;;;;;;2.80;2.60;;;6.00;99.90;;;;;;5097102;28;20440;-57
2023/03/07 12:38:36;;;;;;;2.63;2.43;;;6.00;99.90;;;;;;5096850;28;20788;-57
2023/03/07 12:41:19;;;;;;;2.83;2.63;;;6.10;99.90;;;;;;5097005;28;20474;-57
2023/03/07 12:43:51;;;;;;;2.70;2.50;;;6.10;99.90;;;;;;5096778;28;20428;-57
2023/03/07 12:46:27;;;;;;;2.30;2.10;;;6.20;99.90;;;;;;5096942;28;20431;-57
2023/03/07 12:48:59;;;;;;;2.40;2.20;;;6.10;99.90;;;;;;5096960;28;20484;-57
2023/03/07 12:51:31;;;;;;;2.30;2.20;;;6.00;99.90;;;;;;5096802;28;20464;-57
2023/03/07 12:54:00;;;;;;;3.20;2.90;;;6.00;99.90;;;;;;5096903;28;20435;-57
2023/03/07 12:56:35;;;;;;;2.33;2.13;;;6.00;99.90;;;;;;5096426;28;20886;-57